KCBG

Cambridge Municipal Airport

Cambridge, Minnesota, USA
METAR KCBG 210355Z AUTO 00000KT 10SM CLR 12/03 A3015 RMK AO2
Observed Flight Rules
May-21 @ 03:55 UTC (3 hours ago) Visual Flight Rules
Visibility Clouds
10 miles
  • Clear skies
Temperatures Readings
Current 12°C / 54°F
Dewpoint 3°C / 37°F
Humidity 54%
Altimeter 30.15" Hg
Pressure 1021 hPa
Elevation 287
METAR KCBG 210355Z AUTO 00000KT 10SM CLR 12/03 A3015 RMK AO2
Observed Flight Rules
May-21 @ 03:55 UTC
(3 hours ago)
VFR
Clouds
  • Clear skies
Temperature Dewpoint
12°C / 54°F 3°C / 37°F
Humidity Altimeter Pressure
54% 30.15" Hg 1021 hPa